createdAt,value
2023-03-22T00:01:15.269Z,1.70
2023-03-22T00:03:42.623Z,1.70
2023-03-22T00:06:09.824Z,1.90
2023-03-22T00:08:37.087Z,1.90
2023-03-22T00:11:04.856Z,1.80
2023-03-22T00:13:34.429Z,1.90
2023-03-22T00:16:02.779Z,1.70
2023-03-22T00:18:30.238Z,1.70
2023-03-22T00:20:58.858Z,1.75
2023-03-22T00:23:26.934Z,1.70
2023-03-22T00:25:54.748Z,2.00
2023-03-22T00:28:21.797Z,2.30
2023-03-22T00:31:14.814Z,2.28
2023-03-22T00:33:41.749Z,2.10
2023-03-22T00:36:10.981Z,2.10
2023-03-22T00:38:42.791Z,1.95
2023-03-22T00:41:16.356Z,2.53
2023-03-22T00:43:43.911Z,2.25
2023-03-22T00:46:12.374Z,1.90
2023-03-22T00:48:39.626Z,2.25
2023-03-22T00:51:07.500Z,2.05
2023-03-22T00:53:36.376Z,2.08
2023-03-22T00:56:04.560Z,2.35
2023-03-22T00:58:31.606Z,2.13
2023-03-22T01:00:58.637Z,2.20
2023-03-22T01:03:25.854Z,2.40
2023-03-22T01:05:56.701Z,2.10
2023-03-22T01:08:24.464Z,2.00
2023-03-22T01:10:52.044Z,1.90
2023-03-22T01:13:19.246Z,2.00
2023-03-22T01:15:47.941Z,2.10
2023-03-22T01:18:14.826Z,2.30
2023-03-22T01:20:42.129Z,2.00
2023-03-22T01:23:09.078Z,2.40
2023-03-22T01:25:36.016Z,2.00
2023-03-22T01:28:03.047Z,2.30
2023-03-22T01:30:30.294Z,2.00
2023-03-22T01:32:57.280Z,2.20
2023-03-22T01:35:24.549Z,2.60
2023-03-22T01:37:51.386Z,2.25
2023-03-22T01:40:18.305Z,2.50
2023-03-22T01:42:45.326Z,2.63
2023-03-22T01:45:15.455Z,2.40
2023-03-22T01:48:08.986Z,2.10
2023-03-22T01:50:37.520Z,2.22
2023-03-22T01:53:06.913Z,2.80
2023-03-22T01:55:34.478Z,2.20
2023-03-22T01:58:02.712Z,2.03
2023-03-22T02:00:29.810Z,2.03
2023-03-22T02:02:57.458Z,2.10
2023-03-22T02:05:25.582Z,2.30
2023-03-22T02:07:53.476Z,2.10
2023-03-22T02:10:24.241Z,1.90
2023-03-22T02:13:18.373Z,2.40
2023-03-22T02:16:28.857Z,2.00
2023-03-22T02:19:42.531Z,2.20
2023-03-22T02:22:41.819Z,2.20
2023-03-22T02:25:31.986Z,1.90
2023-03-22T02:28:25.686Z,1.70
2023-03-22T02:31:16.847Z,2.10
2023-03-22T02:33:55.741Z,2.00
2023-03-22T02:36:56.456Z,1.90
2023-03-22T02:39:29.497Z,2.20
2023-03-22T02:42:10.150Z,2.30
2023-03-22T02:44:59.520Z,2.10
2023-03-22T02:47:34.270Z,2.20
2023-03-22T02:50:10.202Z,1.70
2023-03-22T02:52:49.208Z,2.60
2023-03-22T02:55:27.562Z,2.20
2023-03-22T02:58:00.342Z,2.10
2023-03-22T03:00:28.039Z,2.60
2023-03-22T03:03:11.303Z,2.20
2023-03-22T03:05:50.932Z,2.30
2023-03-22T03:08:19.492Z,2.20
2023-03-22T03:10:47.338Z,2.00
2023-03-22T03:13:16.662Z,1.83
2023-03-22T03:15:46.621Z,2.15
2023-03-22T03:18:25.725Z,2.25
2023-03-22T03:21:34.845Z,1.95
2023-03-22T03:24:23.214Z,2.22
2023-03-22T03:27:17.666Z,2.10
2023-03-22T03:29:58.758Z,2.10
2023-03-22T03:32:52.532Z,2.10
2023-03-22T03:35:25.447Z,2.10
2023-03-22T03:38:01.435Z,2.03
2023-03-22T03:40:34.901Z,2.00
2023-03-22T03:43:04.544Z,1.80
2023-03-22T03:45:32.359Z,1.95
2023-03-22T03:48:02.421Z,2.03
2023-03-22T03:50:30.390Z,2.05
2023-03-22T03:52:57.616Z,1.80
2023-03-22T03:55:26.665Z,2.05
2023-03-22T03:57:53.550Z,1.80
2023-03-22T04:00:20.522Z,2.30
2023-03-22T04:02:47.453Z,2.15
2023-03-22T04:05:15.005Z,1.85
2023-03-22T04:07:41.923Z,2.10
2023-03-22T04:10:09.179Z,2.00
2023-03-22T04:12:36.283Z,2.10
2023-03-22T04:15:03.328Z,2.00
2023-03-22T04:17:32.087Z,1.90
2023-03-22T04:19:58.966Z,1.88
2023-03-22T04:22:26.725Z,1.90
2023-03-22T04:24:53.678Z,1.90
2023-03-22T04:27:22.104Z,1.70
2023-03-22T04:29:48.942Z,1.70
2023-03-22T04:32:19.354Z,1.70
2023-03-22T04:34:49.266Z,1.90
2023-03-22T04:37:16.350Z,1.80
2023-03-22T04:39:43.749Z,1.80
2023-03-22T04:42:11.233Z,1.70
2023-03-22T04:44:38.196Z,1.85
2023-03-22T04:47:05.088Z,1.75
2023-03-22T04:49:32.101Z,1.80
2023-03-22T04:51:59.060Z,1.50
2023-03-22T04:54:26.114Z,1.60
2023-03-22T04:56:52.964Z,1.77
2023-03-22T04:59:20.481Z,1.70
2023-03-22T05:01:48.397Z,1.70
2023-03-22T05:04:16.407Z,1.90
2023-03-22T05:06:43.314Z,2.17
2023-03-22T05:09:10.514Z,1.90
2023-03-22T05:11:37.814Z,1.70
2023-03-22T05:14:04.741Z,1.85
2023-03-22T05:16:31.861Z,1.70
2023-03-22T05:18:58.779Z,1.90
2023-03-22T05:21:28.209Z,1.60
2023-03-22T05:23:59.157Z,1.70
2023-03-22T05:26:26.869Z,1.60
2023-03-22T05:28:54.754Z,2.00
2023-03-22T05:31:22.849Z,1.90
2023-03-22T05:33:51.339Z,1.73
2023-03-22T05:36:19.876Z,1.70
2023-03-22T05:38:47.064Z,1.60
2023-03-22T05:41:14.498Z,1.80
2023-03-22T05:43:41.523Z,1.70
2023-03-22T05:46:10.334Z,1.70
2023-03-22T05:48:38.735Z,2.08
2023-03-22T05:51:17.607Z,1.70
2023-03-22T05:53:48.514Z,1.80
2023-03-22T05:56:15.818Z,1.80
2023-03-22T05:58:43.162Z,1.73
2023-03-22T06:01:12.368Z,1.75
2023-03-22T06:03:39.926Z,1.77
2023-03-22T06:06:10.542Z,1.70
2023-03-22T06:08:38.581Z,1.90
2023-03-22T06:11:06.761Z,2.03
2023-03-22T06:13:33.652Z,1.70
2023-03-22T06:16:02.753Z,1.60
2023-03-22T06:18:30.975Z,1.97
2023-03-22T06:20:58.042Z,1.50
2023-03-22T06:23:24.902Z,1.80
2023-03-22T06:25:51.866Z,1.60
2023-03-22T06:28:18.889Z,1.63
2023-03-22T06:30:45.910Z,1.70
2023-03-22T06:33:12.915Z,1.90
2023-03-22T06:35:39.880Z,1.98
2023-03-22T06:38:06.792Z,2.00
2023-03-22T06:40:35.743Z,2.00
2023-03-22T06:43:06.802Z,1.88
2023-03-22T06:45:34.117Z,2.10
2023-03-22T06:48:01.640Z,2.00
2023-03-22T06:50:29.458Z,2.10
2023-03-22T06:52:56.505Z,1.50
2023-03-22T06:55:24.848Z,1.50
2023-03-22T06:57:51.772Z,1.65
2023-03-22T07:00:18.991Z,1.70
2023-03-22T07:02:46.044Z,1.80
2023-03-22T07:05:12.868Z,1.60
2023-03-22T07:07:39.746Z,1.50
2023-03-22T07:10:07.990Z,1.70
2023-03-22T07:12:35.431Z,1.40
2023-03-22T07:15:03.231Z,1.70
2023-03-22T07:17:30.226Z,1.67
2023-03-22T07:19:57.165Z,1.80
2023-03-22T07:22:24.916Z,1.70
2023-03-22T07:24:57.748Z,1.60
2023-03-22T07:27:26.106Z,1.50
2023-03-22T07:29:53.121Z,1.35
2023-03-22T07:32:20.072Z,1.45
2023-03-22T07:34:47.129Z,1.80
2023-03-22T07:37:14.021Z,1.50
2023-03-22T07:39:40.908Z,1.37
2023-03-22T07:42:07.868Z,1.40
2023-03-22T07:44:34.864Z,1.30
2023-03-22T07:47:01.832Z,1.50
2023-03-22T07:49:28.790Z,1.40
2023-03-22T07:51:55.571Z,1.20
2023-03-22T07:54:32.852Z,1.40
2023-03-22T07:57:01.322Z,1.20
2023-03-22T07:59:28.626Z,1.10
2023-03-22T08:01:55.517Z,1.00
2023-03-22T08:04:22.750Z,1.20
2023-03-22T08:06:50.009Z,1.20
2023-03-22T08:09:17.618Z,1.10
2023-03-22T08:11:44.452Z,1.00
2023-03-22T08:14:11.604Z,1.10
2023-03-22T08:16:38.604Z,1.10
2023-03-22T08:19:06.045Z,1.08
2023-03-22T08:21:33.053Z,1.30
2023-03-22T08:23:59.907Z,1.30
2023-03-22T08:26:27.406Z,1.40
2023-03-22T08:28:54.327Z,1.40
2023-03-22T08:31:22.486Z,1.30
2023-03-22T08:33:49.686Z,1.20
2023-03-22T08:36:19.381Z,1.40
2023-03-22T08:38:46.372Z,1.48
2023-03-22T08:41:13.950Z,1.30
2023-03-22T08:43:40.782Z,1.50
2023-03-22T08:46:08.612Z,1.30
2023-03-22T08:48:37.934Z,1.30
2023-03-22T08:51:09.662Z,1.40
2023-03-22T08:53:36.617Z,1.40
2023-03-22T08:56:04.058Z,1.30
2023-03-22T08:58:31.139Z,1.30
2023-03-22T09:00:58.147Z,1.20
2023-03-22T09:03:25.274Z,1.20
2023-03-22T09:05:52.375Z,1.00
2023-03-22T09:08:20.148Z,1.10
2023-03-22T09:10:51.602Z,1.20
2023-03-22T09:13:19.396Z,1.17
2023-03-22T09:15:46.629Z,1.10
2023-03-22T09:18:14.334Z,1.20
2023-03-22T09:20:41.594Z,1.10
2023-03-22T09:23:08.636Z,1.20
2023-03-22T09:25:35.824Z,1.30
2023-03-22T09:28:02.743Z,1.50
2023-03-22T09:30:29.701Z,1.30
2023-03-22T09:32:56.929Z,1.20
2023-03-22T09:35:24.002Z,1.20
2023-03-22T09:37:53.463Z,1.20
2023-03-22T09:40:24.901Z,1.30
2023-03-22T09:42:55.683Z,1.00
2023-03-22T09:45:38.374Z,1.20
2023-03-22T09:48:31.114Z,1.05
2023-03-22T09:51:02.209Z,1.10
2023-03-22T09:53:30.456Z,1.30
2023-03-22T09:56:08.756Z,1.10
2023-03-22T09:58:54.769Z,1.10
2023-03-22T10:01:37.510Z,1.20
2023-03-22T10:04:10.703Z,1.30
2023-03-22T10:06:37.740Z,1.10
2023-03-22T10:09:22.470Z,1.20
2023-03-22T10:12:07.065Z,1.00
2023-03-22T10:14:38.218Z,1.10
2023-03-22T10:17:26.928Z,1.10
2023-03-22T10:20:08.160Z,1.20
2023-03-22T10:22:41.873Z,1.15
2023-03-22T10:25:14.941Z,1.20
2023-03-22T10:27:42.788Z,1.20
2023-03-22T10:30:21.419Z,1.10
2023-03-22T10:33:01.731Z,1.30
2023-03-22T10:35:30.536Z,1.00
2023-03-22T10:38:01.625Z,1.10
2023-03-22T10:40:36.360Z,1.10
2023-03-22T10:43:10.036Z,1.20
2023-03-22T10:45:38.230Z,1.10
2023-03-22T10:48:13.501Z,1.17
2023-03-22T10:50:44.363Z,1.27
2023-03-22T10:53:26.232Z,1.15
2023-03-22T10:55:53.505Z,1.02
2023-03-22T10:58:23.301Z,1.20
2023-03-22T11:00:53.226Z,1.10
2023-03-22T11:03:36.509Z,1.40
2023-03-22T11:06:19.549Z,1.00
2023-03-22T11:09:15.709Z,1.10
2023-03-22T11:11:54.620Z,1.30
2023-03-22T11:14:32.393Z,1.20
2023-03-22T11:17:19.156Z,1.20
2023-03-22T11:20:01.341Z,1.10
2023-03-22T11:22:41.247Z,1.40
2023-03-22T11:25:22.680Z,1.20
2023-03-22T11:27:53.436Z,1.25
2023-03-22T11:30:26.927Z,1.30
2023-03-22T11:33:19.943Z,1.30
2023-03-22T11:35:53.832Z,1.45
2023-03-22T11:38:41.000Z,1.50
2023-03-22T11:41:45.128Z,1.42
2023-03-22T11:44:17.153Z,1.40
2023-03-22T11:47:00.517Z,1.23
2023-03-22T11:49:43.705Z,1.40
2023-03-22T11:52:16.328Z,1.60
2023-03-22T11:54:45.827Z,1.50
2023-03-22T11:57:17.430Z,1.50
2023-03-22T11:59:55.721Z,2.58
2023-03-22T12:02:38.889Z,1.55
2023-03-22T12:05:19.077Z,1.67
2023-03-22T12:07:48.112Z,1.40
2023-03-22T12:10:32.369Z,1.48
2023-03-22T12:13:26.942Z,1.30
2023-03-22T12:15:59.236Z,1.50
2023-03-22T12:19:10.445Z,1.50
2023-03-22T12:21:37.568Z,1.40
2023-03-22T12:24:14.022Z,1.50
2023-03-22T12:26:41.044Z,1.40
2023-03-22T12:29:19.903Z,1.50
2023-03-22T12:32:00.239Z,1.20
2023-03-22T12:34:41.005Z,1.30
2023-03-22T12:37:12.051Z,1.30
2023-03-22T12:39:45.722Z,1.40
2023-03-22T12:42:26.049Z,1.25
2023-03-22T12:45:05.050Z,1.40
2023-03-22T12:47:41.797Z,1.30
2023-03-22T12:50:20.251Z,1.30
2023-03-22T12:52:51.155Z,1.38
2023-03-22T12:55:28.955Z,1.30
2023-03-22T12:57:56.770Z,1.30
2023-03-22T13:00:43.668Z,1.42
2023-03-22T13:03:17.307Z,1.50
2023-03-22T13:05:59.444Z,1.20
2023-03-22T13:08:46.369Z,1.30
2023-03-22T13:11:23.317Z,1.30
2023-03-22T13:13:50.236Z,1.27
2023-03-22T13:16:22.742Z,1.10
2023-03-22T13:18:49.737Z,1.30
2023-03-22T13:21:16.539Z,1.30
2023-03-22T13:24:01.691Z,1.10
2023-03-22T13:26:45.569Z,1.20
2023-03-22T13:29:22.039Z,1.05
2023-03-22T13:31:51.648Z,1.30
2023-03-22T13:34:49.124Z,1.20
2023-03-22T13:37:35.201Z,1.40
2023-03-22T13:40:38.030Z,1.00
2023-03-22T13:43:25.800Z,1.27
2023-03-22T13:46:03.029Z,1.10
2023-03-22T13:48:41.353Z,1.15
2023-03-22T13:51:31.143Z,1.20
2023-03-22T13:54:13.340Z,1.30
2023-03-22T13:57:01.641Z,1.20
2023-03-22T13:59:59.850Z,1.08
2023-03-22T14:02:40.876Z,1.30
2023-03-22T14:05:21.273Z,1.00
2023-03-22T14:07:56.216Z,1.20
2023-03-22T14:10:32.928Z,1.30
2023-03-22T14:13:28.325Z,1.20
2023-03-22T14:16:05.552Z,1.10
2023-03-22T14:18:36.129Z,1.40
2023-03-22T14:21:11.501Z,1.30
